Terminal Aerodrome Forecast
Issued by NWS

Home | Current Version | Previous Version | Text Only | Print | Product List | Glossary On
Versions: 1 2 3 4 5 6 7 8 9 10 11 12 13 14 15
000
FTUS45 KRIW 280531
TAFCPR
TAF
KCPR 280531Z 2806/2906 23006KT P6SM SCT100
     FM282000 28011KT P6SM VCTS SCT060CB BKN120
     FM290000 36010KT P6SM BKN100
     FM290200 04006KT P6SM SCT100=

USA.gov is the U.S. government's official web portal to all federal, state and local government web resources and services.